Latest Coastal Weather Observations for Port Lincoln Airport

IDS60701

Issued at 9:31 pm CDT Monday 20 February 2017 (issued every 10 minutes, with the page automatically refreshed every 10 minutes)

About coastal observations | Map of coastal stations | Coastal observations for SA | Marine services | Other Formats
Station Details ID: 018192 Name: PORT LINCOLN AWS Lat: -34.60 Lon: 135.88 Height: 8.5 m
Data from the previous 72 hours. | See also: Recent months at Port Lincoln Airport
Date/Time
CDT
Temp
°C
Wind Pressure Rain since
9am
mm
Weather Cloud Vis
km
Sea
Height
m
Swell
Dir  Spd
kts
Gust
kts
hPa Trend Height
m
Period
s
Dir
20/09:00pm 16.6 SE 11 13 1018.6 - 0.0 - - 10 - - - -
20/08:30pm 16.8 ESE 9 11 1018.2 - 0.0 - - 10 - - - -
20/08:00pm 17.5 ESE 8 11 1018.2 - 0.0 - - 10 - - - -
20/07:30pm 18.4 SE 10 14 1018.1 - 0.0 - - 10 - - - -
20/07:00pm 18.9 ESE 10 13 1017.7 - 0.0 - - 10 - - - -
20/06:30pm 19.2 SE 9 12 1017.8 - 0.0 - - 10 - - - -
20/06:00pm 19.6 ESE 10 14 1017.6 - 0.0 - - 10 - - - -
20/05:30pm 19.2 SE 10 15 1017.5 - 0.0 - Partly cloudy 10 - - - -
20/05:00pm 19.3 SE 9 13 1017.6 - 0.0 - Partly cloudy 10 - - - -
20/04:30pm 18.8 SE 11 15 1017.7 - 0.0 - Cloudy 10 - - - -
20/04:00pm 19.1 SE 12 16 1017.7 - 0.0 - Partly cloudy 10 - - - -
20/03:30pm 18.7 SE 11 15 1017.9 - 0.0 - Partly cloudy 10 - - - -
20/03:00pm 19.0 SE 13 16 1018.1 - 0.0 - Mostly cloudy 10 - - - -
20/02:30pm 19.8 SE 10 15 1018.2 - 0.0 - Cloudy 10 - - - -
20/02:00pm 19.2 SSE 9 12 1018.3 - 0.0 - Cloudy 10 - - - -
20/01:30pm 20.4 SE 11 16 1018.3 - 0.0 - Partly cloudy 10 - - - -
20/01:00pm 19.8 SE 9 14 1018.6 - 0.0 - Cloudy 10 - - - -
20/12:30pm 19.8 SE 9 15 1018.7 - 0.0 - Cloudy 10 - - - -
20/12:00pm 20.0 SE 9 13 1019.0 - 0.0 - Mostly cloudy 10 - - - -
20/11:30am 19.2 SE 7 10 1019.1 - 0.0 - Cloudy 10 - - - -
20/11:00am 19.0 SE 7 9 1019.4 - 0.0 - Cloudy 10 - - - -
20/10:30am 18.8 SE 7 10 1019.4 - 0.0 - Cloudy 10 - - - -
20/10:00am 18.3 ESE 2 7 1019.4 - 0.0 - Partly cloudy 10 - - - -
20/09:30am 17.6 SSW 5 9 1019.5 - 0.0 - Cloudy 10 - - - -
20/09:00am 17.1 W 8 9 1019.4 - 0.0 - Cloudy 10 - - - -
20/08:30am 15.7 W 7 9 1019.2 - 0.0 - Cloudy 10 - - - -
20/08:00am 15.3 SW 7 10 1019.0 - 0.0 - Cloudy 10 - - - -
20/07:30am 15.4 SW 8 14 1018.7 - 0.0 - Cloudy 10 - - - -
20/07:00am 15.6 S 6 8 1018.4 - 0.0 - Cloudy 10 - - - -
20/06:30am 15.7 S 10 15 1018.1 - 0.0 - Partly cloudy 10 - - - -
20/06:00am 15.4 SSW 8 12 1017.9 - 0.0 - Cloudy 10 - - - -
20/05:30am 15.6 WSW 7 9 1017.7 - 0.0 - Partly cloudy 10 - - - -
20/05:00am 15.6 WSW 7 8 1017.5 - 0.0 - Cloudy 10 - - - -
20/04:30am 15.4 WSW 7 9 1017.5 - 0.0 - Cloudy 10 - - - -
20/04:00am 15.3 WSW 7 8 1017.4 - 0.0 - Partly cloudy 10 - - - -
20/03:30am 14.7 WNW 6 7 1017.5 - 0.0 - Cloudy 10 - - - -
20/03:00am 14.5 W 5 6 1017.6 - 0.0 - Cloudy 10 - - - -
20/02:30am 14.8 SW 6 8 1017.9 - 0.0 - Partly cloudy 10 - - - -
20/02:00am 15.2 SSW 4 6 1018.0 - 0.0 - Partly cloudy 10 - - - -
20/01:30am 15.3 WSW 8 11 1018.4 - 0.0 - Cloudy 10 - - - -
20/01:00am 15.9 SW 9 13 1018.6 - 0.0 - Cloudy 10 - - - -
20/12:30am 15.9 SW 7 9 1018.7 - 0.0 - Cloudy 10 - - - -
20/12:00am 16.0 SW 8 13 1018.8 - 0.0 - Cloudy 10 - - - -
 
Date/Time
CDT
Temp
°C
Wind Pressure Rain since
9am
mm
Weather Cloud Vis
km
Sea
Height
m
Swell
Dir  Spd
kts
Gust
kts
hPa Trend Height
m
Period
s
Dir
19/11:30pm 16.0 WSW 6 8 1018.9 - 0.0 - Cloudy 10 - - - -
19/11:00pm 16.1 WSW 8 11 1019.1 - 0.0 - Cloudy 10 - - - -
19/10:30pm 15.8 SW 5 7 1019.1 - 0.0 - Cloudy 10 - - - -
19/10:00pm 15.8 SW 7 10 1018.8 - 0.0 - Cloudy 10 - - - -
19/09:30pm 15.6 SW 7 10 1018.9 - 0.0 - Partly cloudy 10 - - - -
19/09:00pm 15.7 SW 10 13 1018.7 - 0.0 - Partly cloudy 10 - - - -
19/08:30pm 16.5 SSW 11 16 1018.6 - 0.0 - Cloudy 10 - - - -
19/08:00pm 17.0 SSW 12 15 1018.3 - 0.0 - Cloudy 10 - - - -
19/07:30pm 17.5 SW 14 17 1018.3 - 0.0 - Partly cloudy 10 - - - -
19/07:00pm 17.6 SSW 12 15 1018.0 - 0.0 - Partly cloudy 10 - - - -
19/06:30pm 17.7 SW 12 16 1018.1 - 0.0 - Partly cloudy 10 - - - -
19/06:00pm 17.7 SW 13 17 1018.1 - 0.0 - Cloudy 10 - - - -
19/05:30pm 19.0 SW 12 17 1018.0 - 0.0 - Partly cloudy 10 - - - -
19/05:00pm 18.8 SSW 15 19 1018.1 - 0.0 - Cloudy 10 - - - -
19/04:30pm 19.5 SSW 15 20 1017.8 - 0.0 - Partly cloudy 10 - - - -
19/04:00pm 19.2 SSW 13 18 1017.9 - 0.0 - Partly cloudy 10 - - - -
19/03:30pm 19.1 SW 13 17 1018.4 - 0.0 - Partly cloudy 10 - - - -
19/03:00pm 18.8 SSW 12 15 1018.5 - 0.0 - Cloudy 10 - - - -
19/02:30pm 20.5 SW 12 17 1018.6 - 0.0 - Partly cloudy 10 - - - -
19/02:00pm 19.2 SW 15 20 1018.8 - 0.0 - Cloudy 10 - - - -
19/01:30pm 19.5 WSW 14 18 1018.8 - 0.0 - Partly cloudy 10 - - - -
19/01:00pm 19.8 WSW 14 19 1018.9 - 0.0 - Cloudy 10 - - - -
19/12:30pm 18.9 SW 12 20 1019.2 - 0.0 - Partly cloudy 10 - - - -
19/12:00pm 18.9 WSW 13 17 1019.5 - 0.0 - Cloudy 10 - - - -
19/11:30am 18.7 SW 13 21 1019.6 - 0.0 - Partly cloudy 10 - - - -
19/11:00am 18.3 SW 12 15 1019.7 - 0.0 - Partly cloudy 10 - - - -
19/10:30am 17.7 SW 12 15 1019.8 - 0.0 - Cloudy 10 - - - -
19/10:00am 18.3 SW 12 15 1019.6 - 0.0 - Cloudy 10 - - - -
19/09:30am 17.3 SW 13 17 1019.5 - 0.0 - Cloudy 10 - - - -
19/09:00am 16.8 WSW 13 16 1019.2 - 0.0 - Cloudy 10 - - - -
19/08:30am 16.3 WSW 10 14 1019.2 - 0.0 - Cloudy 10 - - - -
19/08:00am 15.6 SW 9 12 1019.0 - 0.0 - Cloudy 10 - - - -
19/07:30am 15.3 WSW 9 11 1018.9 - 0.0 - Cloudy 10 - - - -
19/07:00am 15.1 WSW 9 11 1018.5 - 0.0 - Cloudy 10 - - - -
19/06:30am 14.8 WSW 8 11 1018.4 - 0.0 - Cloudy 10 - - - -
19/06:00am 14.7 WSW 7 9 1018.4 - 0.0 - Cloudy 10 - - - -
19/05:30am 14.7 W 8 10 1018.2 - 0.0 - Cloudy 10 - - - -
19/05:00am 15.1 SW 7 12 1018.4 - 0.0 - Partly cloudy 10 - - - -
19/04:30am 15.0 WSW 9 11 1018.3 - 0.0 - Cloudy 10 - - - -
19/04:00am 14.3 WSW 9 11 1018.6 - 0.0 - Partly cloudy 10 - - - -
19/03:30am 12.9 WSW 7 9 1018.5 - 0.0 - Partly cloudy 10 - - - -
19/03:00am 14.8 WSW 7 9 1018.7 - 0.0 - Cloudy 10 - - - -
19/02:30am 14.6 WSW 8 10 1019.0 - 0.0 - Cloudy 10 - - - -
19/02:00am 14.6 WSW 6 8 1019.1 - 0.0 - Cloudy 10 - - - -
19/01:30am 14.9 SW 9 12 1019.6 - 0.0 - Partly cloudy 10 - - - -
19/01:00am 14.9 SW 8 13 1019.8 - 0.0 - Cloudy 10 - - - -
19/12:30am 14.6 SW 8 11 1019.7 - 0.0 - Cloudy 10 - - - -
19/12:00am 14.8 WSW 11 14 1019.7 - 0.0 - Mostly cloudy 10 - - - -
 
Date/Time
CDT
Temp
°C
Wind Pressure Rain since
9am
mm
Weather Cloud Vis
km
Sea
Height
m
Swell
Dir  Spd
kts
Gust
kts
hPa Trend Height
m
Period
s
Dir
18/11:30pm 14.7 WSW 8 11 1019.7 - 0.0 - Cloudy 10 - - - -
18/11:00pm 14.0 WSW 7 10 1019.6 - 0.0 - Partly cloudy 10 - - - -
18/10:30pm 14.0 SW 8 11 1019.8 - 0.0 - Partly cloudy 10 - - - -
18/10:00pm 14.1 SW 7 9 1019.8 - 0.0 - Partly cloudy 10 - - - -
18/09:30pm 13.9 WSW 8 11 1019.7 - 0.0 - Cloudy 10 - - - -
18/09:00pm 14.1 WSW 6 8 1019.5 - 0.0 - Cloudy 10 - - - -
18/08:30pm 14.1 SW 8 11 1019.4 - 0.0 - Partly cloudy 10 - - - -
18/08:00pm 14.2 SSW 15 18 1019.2 - 0.0 - Partly cloudy 10 - - - -
18/07:30pm 15.1 SW 17 24 1018.8 - 0.0 - Partly cloudy 10 - - - -
18/07:00pm 16.8 SSW 17 21 1018.2 - 0.0 - Partly cloudy 10 - - - -
18/06:30pm 18.4 SSW 16 21 1017.8 - 0.0 - Partly cloudy 10 - - - -
18/06:00pm 18.0 SSW 16 22 1017.8 - 0.0 - Cloudy 10 - - - -
18/05:30pm 18.6 SSW 14 20 1017.9 - 0.0 - Cloudy 10 - - - -
18/05:00pm 19.5 SSW 18 24 1017.9 - 0.0 - Partly cloudy 10 - - - -
18/04:30pm 18.4 SSW 19 24 1017.9 - 0.0 - Partly cloudy 10 - - - -
18/04:00pm 19.0 SSW 17 25 1018.0 - 0.0 - Partly cloudy 10 - - - -
18/03:30pm 20.2 S 18 26 1018.0 - 0.0 - Partly cloudy 10 - - - -
18/03:00pm 19.2 SSW 22 31 1018.5 - 0.0 - Cloudy 10 - - - -
18/02:47pm 19.5 SSW 19 31 1018.4 - 0.0 - Partly cloudy 10 - - - -
18/02:30pm 21.2 SSW 15 22 1018.3 - 0.0 - Partly cloudy 10 - - - -
18/02:00pm 18.9 SSW 18 25 1018.3 - 0.0 - Partly cloudy 10 - - - -
18/01:30pm 18.3 S 19 24 1018.2 - 0.0 - Partly cloudy 10 - - - -
18/01:00pm 17.4 SSW 23 35 1018.3 - 0.0 - Partly cloudy 10 - - - -
18/12:37pm 19.5 SSW 17 28 1017.9 - 0.0 - Partly cloudy 10 - - - -
18/12:30pm 19.0 SSW 19 27 1018.0 - 0.0 - Partly cloudy 10 - - - -
18/12:00pm 19.7 SSW 19 25 1018.1 - 0.0 - Mostly cloudy 10 - - - -
18/11:30am 18.6 SSW 19 26 1018.2 - 0.0 - Partly cloudy 10 - - - -
18/11:00am 17.7 SW 17 25 1018.2 - 0.0 - Partly cloudy 10 - - - -
18/10:30am 15.2 SW 16 28 1018.3 - 0.0 - Partly cloudy 10 - - - -
18/10:24am 17.0 SW 16 28 1018.1 - 0.0 - Partly cloudy 10 - - - -
18/10:00am 17.8 SSW 15 20 1017.8 - 0.0 - Partly cloudy 10 - - - -
18/09:30am 16.8 SW 12 16 1017.8 - 0.0 - Partly cloudy 10 - - - -
18/09:00am 15.4 SW 11 16 1017.6 - 0.0 - Cloudy 10 - - - -
18/08:30am 14.4 WSW 17 27 1017.4 - 0.0 - Partly cloudy 8 - - - -
18/08:26am 14.8 WSW 13 27 1017.3 - 0.0 - Partly cloudy 10 - - - -
18/08:00am 15.8 W 6 8 1016.9 - 0.0 - Cloudy 10 - - - -
18/07:30am 15.1 WSW 7 10 1016.8 - 0.0 - Cloudy 10 - - - -
18/07:00am 15.2 WSW 9 13 1016.3 - 0.0 - Partly cloudy 10 - - - -
18/06:30am 15.2 W 11 15 1016.2 - 0.0 - Partly cloudy 10 - - - -
18/06:00am 14.2 W 7 8 1015.8 - 0.0 - Mostly cloudy 10 - - - -
18/05:30am 14.1 W 7 8 1015.8 - 0.0 - Partly cloudy 10 - - - -
18/05:00am 14.1 W 8 10 1015.9 - 0.0 - Partly cloudy 10 - - - -
18/04:30am 15.0 W 8 10 1016.0 - 0.0 - Partly cloudy 10 - - - -
18/04:00am 14.5 W 7 7 1015.8 - 0.0 - Cloudy 10 - - - -
18/03:30am 14.1 WSW 5 6 1016.1 - 0.0 - Cloudy 10 - - - -
18/03:00am 15.6 WSW 7 10 1016.4 - 0.0 - Cloudy 10 - - - -
18/02:30am 15.6 WSW 7 10 1016.3 - 0.0 - Partly cloudy 10 - - - -
18/02:00am 15.4 WSW 6 8 1016.4 - 0.0 - Partly cloudy 10 - - - -
18/01:30am 15.5 SW 7 9 1016.6 - 0.0 - Partly cloudy 10 - - - -
18/01:00am 15.5 WSW 7 9 1016.8 - 0.0 - Partly cloudy 10 - - - -
18/12:30am 14.2 W 7 10 1016.7 - 0.0 - Partly cloudy 10 - - - -
18/12:00am 13.1 W 7 7 1016.5 - 0.0 - Partly cloudy 10 - - - -
 
Date/Time
CDT
Temp
°C
Wind Pressure Rain since
9am
mm
Weather Cloud Vis
km
Sea
Height
m
Swell
Dir  Spd
kts
Gust
kts
hPa Trend Height
m
Period
s
Dir
17/11:30pm 13.1 WSW 6 7 1016.6 - 0.0 - Partly cloudy 10 - - - -
17/11:00pm 13.2 W 7 8 1017.0 - 0.0 - Partly cloudy 10 - - - -
17/10:30pm 13.8 W 7 8 1016.9 - 0.0 - Partly cloudy 10 - - - -
17/10:00pm 14.8 WSW 6 8 1016.9 - 0.0 - - 10 - - - -

Other Formats:

Comma delimited format used in spreadsheet applications
http://www.bom.gov.au/fwo/IDS60701/IDS60701.95661.axf

JavaScript Object Notation format (JSON) in row-major order
http://www.bom.gov.au/fwo/IDS60701/IDS60701.95661.json